China Lake, California
Current Conditions -  °F | °C
As of 12:56 AM on Wednesday 26 Nov 2014 (Local Time) from KNID Reporting Station
Clear Clear  
Wind Chill: 32°   Ceiling: Unl
Heat Index: 38°   Visibility: 10mi
Dew Point:   Wind: 8mph
Humidity: 27%   Direction: 200°SSW
Pressure: 30.38"   Gusts: NA
Location:  35.68°N, 117.68°W
Report Text: KNID 260856Z AUTO 20007KT 10SM CLR 03/M14 A3038 RMK AO2 SLP292 T00331144 58003 $
Loading
Personal Weather Stations






























Interactive Weather Map New forecast layout! Learn more

10-Day Weather Forecast

Advertisements
Track Severe Weather on mobile